Time;durP1;ratioP1;P1;durP2;ratioP2;P2;SDS_P1;SDS_P2;PMS_P1;PMS_P2;Temp;Humidity;BMP_temperature;BMP_pressure;BME280_temperature;BME280_humidity;BME280_pressure;Samples;Min_cycle;Max_cycle;Signal;HPM_P1;HPM_P2
2024/04/12 00:01:14;;;;;;;5.03;3.40;;;;;;;;;;6691221;21;20245;-79
2024/04/12 00:03:42;;;;;;;4.73;4.17;;;;;;;;;;6690568;21;20265;-79
2024/04/12 00:06:17;;;;;;;3.97;3.57;;;;;;;;;;6691203;21;20211;-79
2024/04/12 00:08:48;;;;;;;4.60;3.60;;;;;;;;;;6690644;21;20592;-79
2024/04/12 00:11:16;;;;;;;6.57;4.03;;;;;;;;;;6690923;21;20598;-79
2024/04/12 00:13:47;;;;;;;5.40;4.07;;;;;;;;;;6690432;21;20219;-79
2024/04/12 00:16:23;;;;;;;5.23;3.83;;;;;;;;;;6690727;21;20227;-80
2024/04/12 00:19:02;;;;;;;5.70;4.07;;;;;;;;;;6690553;21;20693;-79
2024/04/12 00:21:32;;;;;;;6.20;4.17;;;;;;;;;;6691158;21;20167;-79
2024/04/12 00:24:00;;;;;;;4.93;3.90;;;;;;;;;;6690265;21;20279;-79
2024/04/12 00:26:30;;;;;;;6.80;4.30;;;;;;;;;;6690049;21;20315;-79
2024/04/12 00:28:58;;;;;;;4.63;4.13;;;;;;;;;;6690501;21;20278;-79
2024/04/12 00:31:26;;;;;;;5.13;4.07;;;;;;;;;;6690056;21;20211;-80
2024/04/12 00:34:04;;;;;;;5.67;4.13;;;;;;;;;;6689808;21;20222;-79
2024/04/12 00:36:34;;;;;;;7.20;4.53;;;;;;;;;;6690446;21;20172;-80
2024/04/12 00:39:02;;;;;;;6.87;4.23;;;;;;;;;;6690106;21;20214;-79
2024/04/12 00:41:29;;;;;;;5.40;3.90;;;;;;;;;;6690259;21;20215;-79
2024/04/12 00:43:57;;;;;;;6.73;4.33;;;;;;;;;;6690480;21;20235;-79
2024/04/12 00:46:25;;;;;;;6.10;4.43;;;;;;;;;;6690627;21;20219;-80
2024/04/12 00:48:54;;;;;;;5.57;4.10;;;;;;;;;;6688679;21;20219;-78
2024/04/12 00:51:24;;;;;;;6.27;4.47;;;;;;;;;;6688174;21;20258;-78
2024/04/12 00:53:58;;;;;;;5.37;4.17;;;;;;;;;;6688688;21;20738;-79
2024/04/12 00:56:30;;;;;;;4.43;4.00;;;;;;;;;;6688296;21;20273;-79
2024/04/12 00:58:59;;;;;;;5.43;4.67;;;;;;;;;;6688657;21;20270;-79
2024/04/12 01:01:27;;;;;;;5.77;4.60;;;;;;;;;;6688106;21;20227;-78
2024/04/12 01:03:55;;;;;;;5.53;4.83;;;;;;;;;;6688062;21;20283;-79
2024/04/12 01:06:29;;;;;;;7.40;5.20;;;;;;;;;;6688295;21;20690;-78
2024/04/12 01:08:58;;;;;;;5.90;5.30;;;;;;;;;;6687814;21;20234;-78
2024/04/12 01:11:31;;;;;;;6.53;4.80;;;;;;;;;;6687659;21;20261;-79
2024/04/12 01:14:01;;;;;;;6.23;5.37;;;;;;;;;;6688230;21;20344;-78
2024/04/12 01:16:30;;;;;;;5.00;4.50;;;;;;;;;;6688518;21;20223;-78
2024/04/12 01:18:58;;;;;;;7.93;5.80;;;;;;;;;;6687996;21;20231;-79
2024/04/12 01:21:26;;;;;;;6.27;5.67;;;;;;;;;;6688205;21;20235;-78
2024/04/12 01:23:54;;;;;;;6.60;6.00;;;;;;;;;;6687967;21;20219;-78
2024/04/12 01:26:23;;;;;;;8.03;6.07;;;;;;;;;;6688170;21;20585;-79
2024/04/12 01:28:51;;;;;;;7.10;6.07;;;;;;;;;;6687709;21;20223;-79
2024/04/12 01:31:19;;;;;;;6.43;5.77;;;;;;;;;;6687761;21;20223;-79
2024/04/12 01:33:50;;;;;;;6.20;5.60;;;;;;;;;;6687532;21;20270;-79
2024/04/12 01:36:18;;;;;;;7.30;5.73;;;;;;;;;;6687609;21;20230;-79
2024/04/12 01:38:53;;;;;;;7.50;6.80;;;;;;;;;;6687501;21;20223;-78
2024/04/12 01:41:24;;;;;;;7.67;5.53;;;;;;;;;;6687602;21;20222;-78
2024/04/12 01:43:52;;;;;;;6.33;5.70;;;;;;;;;;6687452;21;20219;-79
2024/04/12 01:46:27;;;;;;;5.90;5.40;;;;;;;;;;6687501;21;20610;-78
2024/04/12 01:48:57;;;;;;;6.20;5.60;;;;;;;;;;6688010;21;20520;-79
2024/04/12 01:51:25;;;;;;;6.37;5.73;;;;;;;;;;6688147;21;20226;-79
2024/04/12 01:53:55;;;;;;;5.80;5.30;;;;;;;;;;6688873;21;20223;-79
2024/04/12 01:56:23;;;;;;;6.30;5.80;;;;;;;;;;6688598;21;20295;-79
2024/04/12 01:58:51;;;;;;;6.43;5.83;;;;;;;;;;6688604;21;20227;-79
2024/04/12 02:01:19;;;;;;;7.13;5.73;;;;;;;;;;6688653;21;20325;-80
2024/04/12 02:03:47;;;;;;;7.87;6.20;;;;;;;;;;6688599;21;20336;-79
2024/04/12 02:06:16;;;;;;;6.93;6.23;;;;;;;;;;6689063;21;20219;-80
2024/04/12 02:08:44;;;;;;;7.33;6.63;;;;;;;;;;6688283;21;20243;-79
2024/04/12 02:11:12;;;;;;;7.23;6.53;;;;;;;;;;6732381;21;20223;-79
2024/04/12 02:13:40;;;;;;;9.40;6.43;;;;;;;;;;6688662;21;20278;-80
2024/04/12 02:16:10;;;;;;;7.27;6.57;;;;;;;;;;6688789;21;20227;-79
2024/04/12 02:18:41;;;;;;;7.90;6.93;;;;;;;;;;6687771;21;20666;-79
2024/04/12 02:21:10;;;;;;;7.53;6.93;;;;;;;;;;6687730;21;20274;-79
2024/04/12 02:23:38;;;;;;;6.90;6.30;;;;;;;;;;6691546;21;20288;-79
2024/04/12 02:26:08;;;;;;;9.87;6.93;;;;;;;;;;6691957;21;20257;-79
2024/04/12 02:28:36;;;;;;;7.83;6.43;;;;;;;;;;6691658;21;20738;-79
2024/04/12 02:31:08;;;;;;;8.50;7.13;;;;;;;;;;6691191;21;20223;-80
2024/04/12 02:33:36;;;;;;;7.73;6.93;;;;;;;;;;6691261;21;20326;-79
2024/04/12 02:36:11;;;;;;;7.83;7.03;;;;;;;;;;6691163;21;20531;-79
2024/04/12 02:38:50;;;;;;;7.97;7.17;;;;;;;;;;6691354;21;20222;-79
2024/04/12 02:41:20;;;;;;;8.80;7.40;;;;;;;;;;6691314;21;20265;-80
2024/04/12 02:44:01;;;;;;;8.97;7.60;;;;;;;;;;6690894;21;20277;-80
2024/04/12 02:46:36;;;;;;;8.13;7.30;;;;;;;;;;6689494;21;20222;-79
2024/04/12 02:49:05;;;;;;;7.50;6.80;;;;;;;;;;6690917;21;20309;-80
2024/04/12 02:51:32;;;;;;;7.83;7.07;;;;;;;;;;6690629;21;20223;-79
2024/04/12 02:54:00;;;;;;;8.40;7.60;;;;;;;;;;6690319;21;20328;-78
2024/04/12 02:56:31;;;;;;;7.60;6.90;;;;;;;;;;6689471;21;20278;-79
2024/04/12 02:59:00;;;;;;;8.63;7.07;;;;;;;;;;6689541;21;20235;-79
2024/04/12 03:01:29;;;;;;;8.10;7.30;;;;;;;;;;6689352;21;20227;-79
2024/04/12 03:03:58;;;;;;;8.53;6.93;;;;;;;;;;6689832;21;20261;-79
2024/04/12 03:06:29;;;;;;;7.77;6.97;;;;;;;;;;6689643;21;20249;-79
2024/04/12 03:09:02;;;;;;;7.70;6.93;;;;;;;;;;6687244;21;20714;-80
2024/04/12 03:11:34;;;;;;;8.60;7.70;;;;;;;;;;6687998;21;20215;-79
2024/04/12 03:14:09;;;;;;;8.13;7.33;;;;;;;;;;6687452;21;20269;-80
2024/04/12 03:16:38;;;;;;;8.13;7.43;;;;;;;;;;6690128;21;20260;-79
2024/04/12 03:19:10;;;;;;;7.50;6.80;;;;;;;;;;6689598;21;20223;-79
2024/04/12 03:21:40;;;;;;;8.57;7.70;;;;;;;;;;6733272;21;20227;-79
2024/04/12 03:24:11;;;;;;;8.37;7.47;;;;;;;;;;6687279;21;20282;-79
2024/04/12 03:26:43;;;;;;;8.43;7.43;;;;;;;;;;6689686;21;20231;-79
2024/04/12 03:29:11;;;;;;;7.73;7.03;;;;;;;;;;6689526;21;20277;-79
2024/04/12 03:31:40;;;;;;;8.27;7.17;;;;;;;;;;6689363;21;20336;-79
2024/04/12 03:34:08;;;;;;;9.37;7.50;;;;;;;;;;6688904;21;20278;-79
2024/04/12 03:41:57;;;;;;;7.27;6.57;;;;;;;;;;6689423;21;20273;-79
2024/04/12 03:44:30;;;;;;;8.47;7.70;;;;;;;;;;6689846;21;20226;-79
2024/04/12 03:47:01;;;;;;;8.50;7.70;;;;;;;;;;6689800;21;20672;-80
2024/04/12 03:49:32;;;;;;;8.87;7.87;;;;;;;;;;6689950;21;20227;-79
2024/04/12 03:52:04;;;;;;;8.40;7.60;;;;;;;;;;6689299;21;20273;-79
2024/04/12 03:54:32;;;;;;;7.57;6.87;;;;;;;;;;6689205;21;20301;-79
2024/04/12 03:57:06;;;;;;;7.67;6.97;;;;;;;;;;6689893;21;20632;-79
2024/04/12 03:59:34;;;;;;;7.57;6.60;;;;;;;;;;6689656;21;20265;-79
2024/04/12 04:02:08;;;;;;;7.80;7.00;;;;;;;;;;6689194;21;20223;-79
2024/04/12 04:04:37;;;;;;;7.60;6.90;;;;;;;;;;6687137;21;20299;-80
2024/04/12 04:07:05;;;;;;;8.33;7.50;;;;;;;;;;6689191;21;20292;-79
2024/04/12 04:09:33;;;;;;;8.60;7.63;;;;;;;;;;6689994;21;20223;-79
2024/04/12 04:12:01;;;;;;;8.33;7.47;;;;;;;;;;6689347;21;20338;-79
2024/04/12 04:14:32;;;;;;;8.00;7.20;;;;;;;;;;6689436;21;20219;-79
2024/04/12 04:17:03;;;;;;;8.53;7.63;;;;;;;;;;6689755;21;20227;-80
2024/04/12 04:19:33;;;;;;;7.80;7.10;;;;;;;;;;6689371;21;20282;-80
2024/04/12 04:22:01;;;;;;;9.67;7.80;;;;;;;;;;6689401;21;20686;-79
2024/04/12 04:24:33;;;;;;;8.40;7.53;;;;;;;;;;6689005;21;20335;-79
2024/04/12 04:27:01;;;;;;;7.97;7.17;;;;;;;;;;6689851;21;20223;-79
2024/04/12 04:29:35;;;;;;;8.07;7.27;;;;;;;;;;6731471;21;20527;-79
2024/04/12 04:32:03;;;;;;;8.37;7.57;;;;;;;;;;6689292;21;20295;-79
2024/04/12 04:34:31;;;;;;;9.40;7.20;;;;;;;;;;6688935;21;20223;-79
2024/04/12 04:36:58;;;;;;;8.00;7.30;;;;;;;;;;6689589;21;20291;-79
2024/04/12 04:39:36;;;;;;;8.30;7.50;;;;;;;;;;6688933;21;20607;-79
2024/04/12 04:42:05;;;;;;;8.80;7.57;;;;;;;;;;6688903;21;20265;-79
2024/04/12 04:44:32;;;;;;;7.67;6.90;;;;;;;;;;6689025;21;20297;-79
2024/04/12 04:47:03;;;;;;;8.27;7.57;;;;;;;;;;6688554;21;20219;-80
2024/04/12 04:49:32;;;;;;;8.47;7.33;;;;;;;;;;6688928;21;20270;-78
2024/04/12 04:52:01;;;;;;;7.93;7.10;;;;;;;;;;6688941;21;20220;-79
2024/04/12 04:54:29;;;;;;;8.10;7.30;;;;;;;;;;6688720;21;20295;-79
2024/04/12 04:56:56;;;;;;;7.73;6.93;;;;;;;;;;6688688;21;20277;-79
2024/04/12 04:59:32;;;;;;;7.80;7.10;;;;;;;;;;6688362;21;20283;-79
2024/04/12 05:02:02;;;;;;;8.07;7.10;;;;;;;;;;6688779;21;20230;-80
2024/04/12 05:04:34;;;;;;;7.83;7.03;;;;;;;;;;6688742;21;20554;-79
2024/04/12 05:07:01;;;;;;;7.93;7.20;;;;;;;;;;6688495;21;20331;-80
2024/04/12 05:09:28;;;;;;;7.37;6.47;;;;;;;;;;6688902;21;20328;-80
2024/04/12 05:11:56;;;;;;;7.57;6.73;;;;;;;;;;6688428;21;20533;-80
2024/04/12 05:17:05;;;;;;;7.10;6.40;;;;;;;;;;6695240;21;20698;-80
2024/04/12 05:19:41;;;;;;;8.23;7.03;;;;;;;;;;6693937;21;20223;-81
2024/04/12 05:22:13;;;;;;;8.13;6.67;;;;;;;;;;6696198;21;20304;-81
2024/04/12 05:24:41;;;;;;;7.93;7.10;;;;;;;;;;6694301;21;20269;-80
2024/04/12 05:27:11;;;;;;;9.13;6.80;;;;;;;;;;6692016;21;20580;-80
2024/04/12 05:29:40;;;;;;;8.23;7.40;;;;;;;;;;6694186;21;20254;-82
2024/04/12 05:32:09;;;;;;;8.03;7.23;;;;;;;;;;6696225;21;20223;-80
2024/04/12 05:34:37;;;;;;;7.40;6.60;;;;;;;;;;6692191;21;20223;-81
2024/04/12 05:37:05;;;;;;;8.20;7.40;;;;;;;;;;6692524;21;20332;-80
2024/04/12 05:39:35;;;;;;;8.40;7.50;;;;;;;;;;6694904;21;20224;-81
2024/04/12 05:42:06;;;;;;;7.53;6.83;;;;;;;;;;6696908;21;20590;-80
2024/04/12 05:44:36;;;;;;;10.07;7.30;;;;;;;;;;6695053;21;20289;-81
2024/04/12 05:47:09;;;;;;;8.10;7.30;;;;;;;;;;6696797;21;20227;-79
2024/04/12 05:49:38;;;;;;;10.93;7.33;;;;;;;;;;6696191;21;20223;-80
2024/04/12 05:52:06;;;;;;;7.63;6.93;;;;;;;;;;6696744;21;20223;-80
2024/04/12 05:54:44;;;;;;;8.17;7.37;;;;;;;;;;6696515;21;20221;-80
2024/04/12 05:57:12;;;;;;;11.90;7.23;;;;;;;;;;6697248;21;20213;-81
2024/04/12 05:59:42;;;;;;;8.70;7.20;;;;;;;;;;6698144;21;20220;-81
2024/04/12 06:02:10;;;;;;;9.60;7.10;;;;;;;;;;6697023;21;20524;-80
2024/04/12 06:04:38;;;;;;;7.90;7.20;;;;;;;;;;6696847;21;20263;-81
2024/04/12 06:07:13;;;;;;;7.23;6.53;;;;;;;;;;6697110;21;20218;-80
2024/04/12 06:09:48;;;;;;;7.30;6.60;;;;;;;;;;6696160;21;20228;-80
2024/04/12 06:12:16;;;;;;;7.17;6.57;;;;;;;;;;6696154;21;20261;-80
2024/04/12 06:14:47;;;;;;;8.17;7.10;;;;;;;;;;6695864;21;20217;-80
2024/04/12 06:17:17;;;;;;;8.97;7.20;;;;;;;;;;6693085;21;20219;-79
2024/04/12 06:19:46;;;;;;;8.90;6.33;;;;;;;;;;6691688;21;20702;-79
2024/04/12 06:22:15;;;;;;;6.80;6.10;;;;;;;;;;6696485;21;20211;-81
2024/04/12 06:24:48;;;;;;;6.50;5.83;;;;;;;;;;6695200;21;20312;-80
2024/04/12 06:27:29;;;;;;;6.27;5.67;;;;;;;;;;6694292;21;20253;-80
2024/04/12 06:30:00;;;;;;;6.47;5.27;;;;;;;;;;6694227;21;20266;-80
2024/04/12 06:32:28;;;;;;;5.97;5.37;;;;;;;;;;6694307;21;20531;-80
2024/04/12 06:34:57;;;;;;;6.23;5.63;;;;;;;;;;6694129;21;20525;-80
2024/04/12 06:37:27;;;;;;;6.93;5.20;;;;;;;;;;6693464;21;20227;-80
2024/04/12 06:39:55;;;;;;;5.93;5.10;;;;;;;;;;6696748;21;20373;-80
2024/04/12 06:42:23;;;;;;;6.53;4.67;;;;;;;;;;6694146;21;20273;-80
2024/04/12 06:44:54;;;;;;;6.10;5.50;;;;;;;;;;6694205;21;20254;-80
2024/04/12 06:47:25;;;;;;;9.93;5.27;;;;;;;;;;6694830;21;20180;-80
2024/04/12 06:49:54;;;;;;;5.37;4.63;;;;;;;;;;6691980;21;20300;-81
2024/04/12 06:52:23;;;;;;;6.17;4.70;;;;;;;;;;6694572;21;20214;-80
2024/04/12 06:54:52;;;;;;;6.07;4.73;;;;;;;;;;6694906;21;20273;-79
2024/04/12 06:57:25;;;;;;;5.47;4.63;;;;;;;;;;6704627;21;20262;-82
2024/04/12 07:00:00;;;;;;;6.87;4.80;;;;;;;;;;6702699;21;20223;-82
2024/04/12 07:02:29;;;;;;;5.97;4.30;;;;;;;;;;6699889;21;20230;-81
2024/04/12 07:04:59;;;;;;;4.87;4.30;;;;;;;;;;6695559;21;20281;-82
2024/04/12 07:07:28;;;;;;;8.90;4.70;;;;;;;;;;6693231;21;20313;-82
2024/04/12 07:10:01;;;;;;;4.80;4.27;;;;;;;;;;6646161;21;20270;-81
2024/04/12 07:12:32;;;;;;;4.93;4.20;;;;;;;;;;6687022;21;20597;-82
2024/04/12 07:15:09;;;;;;;7.27;4.73;;;;;;;;;;6687064;21;20334;-82
2024/04/12 07:21:15;;;;;;;4.30;3.90;;;;;;;;;;6703842;21;20920;-81
2024/04/12 07:23:49;;;;;;;4.80;4.30;;;;;;;;;;6688860;21;20654;-81
2024/04/12 07:26:27;;;;;;;4.40;4.00;;;;;;;;;;6688864;21;20223;-84
2024/04/12 07:29:01;;;;;;;5.53;4.07;;;;;;;;;;6688916;21;20295;-83
2024/04/12 07:31:30;;;;;;;5.33;3.80;;;;;;;;;;6689601;21;20224;-83
2024/04/12 07:34:01;;;;;;;4.80;3.73;;;;;;;;;;6688961;21;20227;-83
2024/04/12 07:36:32;;;;;;;4.93;4.20;;;;;;;;;;6688536;21;20701;-84
2024/04/12 07:39:09;;;;;;;6.60;4.23;;;;;;;;;;6689386;21;20219;-83
2024/04/12 07:41:43;;;;;;;5.70;4.33;;;;;;;;;;6641039;21;20231;-85
2024/04/12 07:44:12;;;;;;;6.43;3.90;;;;;;;;;;6685662;21;20228;-85
2024/04/12 07:46:48;;;;;;;5.43;3.87;;;;;;;;;;6685985;21;20275;-85
2024/04/12 07:49:18;;;;;;;6.23;4.03;;;;;;;;;;6688509;21;20235;-82
2024/04/12 07:51:47;;;;;;;5.37;3.97;;;;;;;;;;6689496;21;20223;-85
2024/04/12 07:54:15;;;;;;;5.67;3.63;;;;;;;;;;6686876;21;20228;-84
2024/04/12 07:56:44;;;;;;;5.40;3.90;;;;;;;;;;6687477;21;20253;-84
2024/04/12 07:59:25;;;;;;;6.60;4.10;;;;;;;;;;6689445;21;20267;-84
2024/04/12 08:01:53;;;;;;;6.30;4.00;;;;;;;;;;6687524;21;20227;-83
2024/04/12 08:04:23;;;;;;;4.87;4.20;;;;;;;;;;6688563;21;20219;-83
2024/04/12 08:09:24;;;;;;;5.07;4.17;;;;;;;;;;6688245;21;20336;-81
2024/04/12 08:11:52;;;;;;;4.80;4.30;;;;;;;;;;6688634;21;20288;-81
2024/04/12 08:14:22;;;;;;;4.73;4.00;;;;;;;;;;6689616;21;20219;-80
2024/04/12 08:16:53;;;;;;;7.63;4.20;;;;;;;;;;6691847;21;20179;-81
2024/04/12 08:19:22;;;;;;;3.93;3.57;;;;;;;;;;6688952;21;20227;-81
2024/04/12 08:21:50;;;;;;;6.03;4.60;;;;;;;;;;6685970;21;20283;-81
2024/04/12 08:24:22;;;;;;;4.77;3.90;;;;;;;;;;6688685;21;20312;-81
2024/04/12 08:26:51;;;;;;;5.43;4.37;;;;;;;;;;6688200;21;20247;-81
2024/04/12 08:29:23;;;;;;;5.67;4.20;;;;;;;;;;6688399;21;20263;-86
2024/04/12 08:34:44;;;;;;;5.00;4.07;;;;;;;;;;6688301;21;20214;-81
2024/04/12 08:37:13;;;;;;;5.57;3.93;;;;;;;;;;6688370;21;20242;-81
2024/04/12 08:39:45;;;;;;;6.23;4.00;;;;;;;;;;6688060;21;20236;-79
2024/04/12 08:42:15;;;;;;;5.63;4.20;;;;;;;;;;6688042;21;20216;-80
2024/04/12 08:44:43;;;;;;;4.77;4.27;;;;;;;;;;6688021;21;20258;-80
2024/04/12 08:50:06;;;;;;;7.27;4.20;;;;;;;;;;6688347;21;20223;-80
2024/04/12 08:52:47;;;;;;;5.57;3.97;;;;;;;;;;6688380;21;20205;-80
2024/04/12 08:55:20;;;;;;;5.93;4.00;;;;;;;;;;6687453;21;20223;-81
2024/04/12 08:57:52;;;;;;;5.77;4.10;;;;;;;;;;6684663;21;21039;-81
2024/04/12 09:00:21;;;;;;;5.27;3.80;;;;;;;;;;6685054;21;20225;-81
2024/04/12 09:02:59;;;;;;;4.03;3.63;;;;;;;;;;6687204;21;20230;-81
2024/04/12 09:05:26;;;;;;;5.73;3.73;;;;;;;;;;6684660;21;20218;-81
2024/04/12 09:07:58;;;;;;;5.03;3.63;;;;;;;;;;6683629;21;21061;-82
2024/04/12 09:10:34;;;;;;;5.27;3.40;;;;;;;;;;6682483;21;20267;-80
2024/04/12 09:13:02;;;;;;;4.27;3.50;;;;;;;;;;6684035;21;20244;-80
2024/04/12 09:15:32;;;;;;;5.83;4.10;;;;;;;;;;6685275;21;20283;-82
2024/04/12 09:18:01;;;;;;;4.27;3.90;;;;;;;;;;6685419;21;20225;-81
2024/04/12 09:20:30;;;;;;;3.97;3.57;;;;;;;;;;6685399;21;20220;-83
2024/04/12 09:23:13;;;;;;;3.83;3.37;;;;;;;;;;6685708;21;20226;-81
2024/04/12 09:25:43;;;;;;;4.93;2.93;;;;;;;;;;6683820;21;20273;-81
2024/04/12 09:28:16;;;;;;;5.43;3.20;;;;;;;;;;6686392;21;20271;-83
2024/04/12 09:33:32;;;;;;;4.77;3.20;;;;;;;;;;6685786;21;20233;-82
2024/04/12 09:36:03;;;;;;;4.00;2.90;;;;;;;;;;6686224;21;20281;-82
2024/04/12 09:38:39;;;;;;;3.37;2.63;;;;;;;;;;6686008;21;20284;-82
2024/04/12 09:41:28;;;;;;;4.03;3.03;;;;;;;;;;6685853;21;20278;-81
2024/04/12 09:43:59;;;;;;;4.97;2.90;;;;;;;;;;6686133;21;20271;-82
2024/04/12 09:46:46;;;;;;;4.07;2.60;;;;;;;;;;6684010;21;20265;-82
2024/04/12 10:37:30;;;;;;;3.27;2.50;;;;;;;;;;6686162;21;20217;-83
2024/04/12 10:39:58;;;;;;;3.40;2.60;;;;;;;;;;6685633;21;20277;-85
2024/04/12 10:42:26;;;;;;;4.90;2.57;;;;;;;;;;6684988;21;20672;-82
2024/04/12 10:44:58;;;;;;;3.57;2.43;;;;;;;;;;6687268;21;20610;-81
2024/04/12 10:47:27;;;;;;;4.30;2.67;;;;;;;;;;6684662;21;20218;-82
2024/04/12 10:50:02;;;;;;;4.53;2.40;;;;;;;;;;6687400;21;20234;-81
2024/04/12 10:52:30;;;;;;;3.20;2.37;;;;;;;;;;6687084;21;20228;-82
2024/04/12 10:54:59;;;;;;;2.37;2.17;;;;;;;;;;6686790;21;20274;-83
2024/04/12 10:57:30;;;;;;;3.33;2.20;;;;;;;;;;6686763;21;20274;-81
2024/04/12 11:00:05;;;;;;;4.20;2.30;;;;;;;;;;6686974;21;20230;-82
2024/04/12 11:02:35;;;;;;;3.03;2.30;;;;;;;;;;6687148;21;20318;-81
2024/04/12 11:05:24;;;;;;;3.53;2.67;;;;;;;;;;6687077;21;20249;-81
2024/04/12 11:07:53;;;;;;;3.15;1.98;;;;;;;;;;6687111;21;20716;-81
2024/04/12 11:10:24;;;;;;;3.85;2.50;;;;;;;;;;6684677;21;20377;-81
2024/04/12 11:12:59;;;;;;;4.53;2.33;;;;;;;;;;6686841;21;20225;-81
2024/04/12 11:32:12;;;;;;;3.77;2.37;;;;;;;;;;6687341;21;20219;-81
2024/04/12 11:34:44;;;;;;;4.27;2.40;;;;;;;;;;6687245;21;20221;-82
2024/04/12 11:37:15;;;;;;;3.57;2.40;;;;;;;;;;6687125;21;20217;-82
2024/04/12 11:39:42;;;;;;;3.77;2.40;;;;;;;;;;6687138;21;20268;-82
2024/04/12 11:42:18;;;;;;;2.60;2.17;;;;;;;;;;6687156;21;20281;-81
2024/04/12 11:44:47;;;;;;;3.70;2.23;;;;;;;;;;6684875;21;20229;-82
2024/04/12 11:47:16;;;;;;;2.43;2.07;;;;;;;;;;6684246;21;20225;-84
2024/04/12 11:49:49;;;;;;;4.57;2.60;;;;;;;;;;6687335;21;20273;-82
2024/04/12 11:52:18;;;;;;;3.40;2.20;;;;;;;;;;6686895;21;20318;-82
2024/04/12 11:54:51;;;;;;;6.63;2.63;;;;;;;;;;6729368;21;20294;-82
2024/04/12 11:57:23;;;;;;;4.43;2.50;;;;;;;;;;6684729;21;20227;-82
2024/04/12 11:59:54;;;;;;;2.80;2.20;;;;;;;;;;6686817;21;20329;-81
2024/04/12 12:02:27;;;;;;;4.93;2.60;;;;;;;;;;6687255;21;20226;-82
2024/04/12 12:04:56;;;;;;;2.43;2.10;;;;;;;;;;6686963;21;20253;-82
2024/04/12 12:07:26;;;;;;;4.33;2.33;;;;;;;;;;6686485;21;20728;-81
2024/04/12 12:09:54;;;;;;;2.87;2.00;;;;;;;;;;6686721;21;20598;-81
2024/04/12 12:12:22;;;;;;;2.58;2.08;;;;;;;;;;6686393;21;20288;-82
2024/04/12 12:14:54;;;;;;;4.93;2.10;;;;;;;;;;6686244;21;20288;-83
2024/04/12 12:17:22;;;;;;;2.33;1.92;;;;;;;;;;6686523;21;20223;-82
2024/04/12 12:19:50;;;;;;;3.60;2.13;;;;;;;;;;6686269;21;20315;-81
2024/04/12 12:22:19;;;;;;;2.20;1.90;;;;;;;;;;6686148;21;20215;-81
2024/04/12 12:24:47;;;;;;;2.55;2.10;;;;;;;;;;6686714;21;20226;-81
2024/04/12 12:27:19;;;;;;;3.13;1.98;;;;;;;;;;6729008;21;20738;-82
2024/04/12 12:29:51;;;;;;;2.63;1.98;;;;;;;;;;6686441;21;20222;-84
2024/04/12 12:32:25;;;;;;;3.20;2.28;;;;;;;;;;6683923;21;20234;-82
2024/04/12 12:34:54;;;;;;;3.88;2.40;;;;;;;;;;6686671;21;20218;-82
2024/04/12 12:37:24;;;;;;;2.67;2.00;;;;;;;;;;6686190;21;20316;-82
2024/04/12 12:39:51;;;;;;;3.13;2.10;;;;;;;;;;6686536;21;20218;-81
2024/04/12 12:42:19;;;;;;;3.47;1.85;;;;;;;;;;6686199;21;20305;-81
2024/04/12 12:44:47;;;;;;;2.85;2.22;;;;;;;;;;6729966;21;20250;-83
2024/04/12 12:47:20;;;;;;;2.92;1.88;;;;;;;;;;6685713;21;20223;-82
2024/04/12 12:49:48;;;;;;;4.75;2.20;;;;;;;;;;6686203;21;20266;-80
2024/04/12 12:52:17;;;;;;;2.60;2.10;;;;;;;;;;6683971;21;20322;-81
2024/04/12 12:54:45;;;;;;;1.92;1.80;;;;;;;;;;6685696;21;20215;-82
2024/04/12 12:57:14;;;;;;;3.33;2.00;;;;;;;;;;6682848;21;21027;-84
2024/04/12 12:59:46;;;;;;;6.32;2.05;;;;;;;;;;6686275;21;20261;-82
2024/04/12 13:02:14;;;;;;;2.30;1.75;;;;;;;;;;6686229;21;20224;-83
2024/04/12 13:04:43;;;;;;;2.55;1.70;;;;;;;;;;6684481;21;20231;-81
2024/04/12 13:07:13;;;;;;;4.30;1.60;;;;;;;;;;6685029;21;20262;-81
2024/04/12 13:09:41;;;;;;;4.20;1.85;;;;;;;;;;6686633;21;20351;-81
2024/04/12 13:12:09;;;;;;;3.75;1.98;;;;;;;;;;6685476;21;20231;-81
2024/04/12 13:14:37;;;;;;;2.33;1.80;;;;;;;;;;6686221;21;20223;-81
2024/04/12 13:17:11;;;;;;;3.05;2.00;;;;;;;;;;6685313;21;20219;-81
2024/04/12 13:19:41;;;;;;;3.45;1.90;;;;;;;;;;6686233;21;20273;-81
2024/04/12 13:22:14;;;;;;;3.63;1.95;;;;;;;;;;6685657;21;20346;-81
2024/04/12 13:24:43;;;;;;;2.00;1.70;;;;;;;;;;6686273;21;20279;-81
2024/04/12 13:27:14;;;;;;;2.08;1.63;;;;;;;;;;6729268;21;20219;-82
2024/04/12 13:29:45;;;;;;;1.70;1.60;;;;;;;;;;6685821;21;20227;-81
2024/04/12 13:32:13;;;;;;;3.35;1.70;;;;;;;;;;6685520;21;20223;-85
2024/04/12 13:34:43;;;;;;;4.65;2.00;;;;;;;;;;6686144;21;20227;-81
2024/04/12 13:37:13;;;;;;;2.85;1.80;;;;;;;;;;6728455;21;20332;-81
2024/04/12 13:39:42;;;;;;;2.35;1.70;;;;;;;;;;6685901;21;20218;-82
2024/04/12 13:42:12;;;;;;;2.38;1.80;;;;;;;;;;6683165;21;20231;-81
2024/04/12 13:53:09;;;;;;;3.15;1.60;;;;;;;;;;6685717;21;20231;-81
2024/04/12 13:55:39;;;;;;;2.13;1.73;;;;;;;;;;6685151;21;20239;-81
2024/04/12 13:58:07;;;;;;;2.42;2.00;;;;;;;;;;6729078;21;20228;-81
2024/04/12 14:00:36;;;;;;;2.70;1.90;;;;;;;;;;6685402;21;20262;-81
2024/04/12 14:03:06;;;;;;;1.73;1.63;;;;;;;;;;6685220;21;20299;-81
2024/04/12 14:05:35;;;;;;;1.90;1.60;;;;;;;;;;6685137;21;20275;-80
2024/04/12 14:08:08;;;;;;;2.22;1.80;;;;;;;;;;6685246;21;20287;-81
2024/04/12 14:10:37;;;;;;;2.25;1.73;;;;;;;;;;6685299;21;20220;-81
2024/04/12 14:13:06;;;;;;;1.90;1.70;;;;;;;;;;6685127;21;20307;-81
2024/04/12 14:15:36;;;;;;;2.25;1.70;;;;;;;;;;6684879;21;20227;-82
2024/04/12 14:18:04;;;;;;;5.45;1.70;;;;;;;;;;6685446;21;20792;-81
2024/04/12 14:20:33;;;;;;;2.38;1.75;;;;;;;;;;6687095;21;20221;-81
2024/04/12 14:23:01;;;;;;;3.45;1.60;;;;;;;;;;6730732;21;20262;-83
2024/04/12 14:25:29;;;;;;;2.60;1.55;;;;;;;;;;6687369;21;20227;-82
2024/04/12 14:27:58;;;;;;;3.03;1.83;;;;;;;;;;6687414;21;20222;-81
2024/04/12 14:30:25;;;;;;;2.00;1.60;;;;;;;;;;6730645;21;20250;-81
2024/04/12 14:32:54;;;;;;;3.40;1.92;;;;;;;;;;6729896;21;20269;-82
2024/04/12 14:35:23;;;;;;;5.45;2.28;;;;;;;;;;6686835;21;20332;-82
2024/04/12 14:37:54;;;;;;;2.97;1.70;;;;;;;;;;6640706;21;20567;-81
2024/04/12 14:40:22;;;;;;;2.38;1.80;;;;;;;;;;6730310;21;20255;-84
2024/04/12 14:42:52;;;;;;;3.03;1.70;;;;;;;;;;6687151;21;20262;-82
2024/04/12 14:45:20;;;;;;;2.53;1.75;;;;;;;;;;6687206;21;20628;-81
2024/04/12 14:47:49;;;;;;;3.28;1.67;;;;;;;;;;6686241;21;20324;-81
2024/04/12 14:50:32;;;;;;;2.90;1.80;;;;;;;;;;6686876;21;20219;-81
2024/04/12 14:53:03;;;;;;;3.05;1.80;;;;;;;;;;6687253;21;20219;-81
2024/04/12 14:55:32;;;;;;;2.38;1.58;;;;;;;;;;6687006;21;20235;-81
2024/04/12 14:58:00;;;;;;;4.47;1.80;;;;;;;;;;6687347;21;20265;-81
2024/04/12 15:00:29;;;;;;;4.43;1.88;;;;;;;;;;6730066;21;20736;-82
2024/04/12 15:52:11;;;;;;;2.75;1.45;;;;;;;;;;6684209;21;20226;-82
2024/04/12 15:54:45;;;;;;;2.25;1.40;;;;;;;;;;6686407;21;20280;-81
2024/04/12 16:11:11;;;;;;;3.20;1.30;;;;;;;;;;6684312;21;20524;-80
2024/04/12 16:13:39;;;;;;;1.50;1.20;;;;;;;;;;6684390;21;20776;-81
2024/04/12 16:16:07;;;;;;;5.50;1.63;;;;;;;;;;6729869;21;20274;-80
2024/04/12 16:18:34;;;;;;;3.92;1.58;;;;;;;;;;6729929;21;20258;-82
2024/04/12 16:21:02;;;;;;;2.13;1.38;;;;;;;;;;6686323;21;20224;-82
2024/04/12 16:23:30;;;;;;;3.58;1.48;;;;;;;;;;6686169;21;20268;-81
2024/04/12 16:25:59;;;;;;;2.58;1.48;;;;;;;;;;6686454;21;20275;-82
2024/04/12 16:28:32;;;;;;;2.75;1.30;;;;;;;;;;6686152;21;20265;-81
2024/04/12 16:31:00;;;;;;;2.72;1.27;;;;;;;;;;6686203;21;20803;-81
2024/04/12 16:33:32;;;;;;;4.43;1.50;;;;;;;;;;6684261;21;20690;-81
2024/04/12 16:36:01;;;;;;;4.80;1.50;;;;;;;;;;6685970;21;20296;-81
2024/04/12 16:38:28;;;;;;;4.32;1.63;;;;;;;;;;6686063;21;20589;-82
2024/04/12 16:40:56;;;;;;;6.22;1.42;;;;;;;;;;6686155;21;20234;-81
2024/04/12 16:43:25;;;;;;;3.35;1.23;;;;;;;;;;6729119;21;20239;-82
2024/04/12 16:45:54;;;;;;;2.22;1.30;;;;;;;;;;6729740;21;20584;-82
2024/04/12 16:48:21;;;;;;;2.27;1.30;;;;;;;;;;6685468;21;20293;-82
2024/04/12 16:50:49;;;;;;;1.90;1.10;;;;;;;;;;6729088;21;20715;-83
2024/04/12 16:53:17;;;;;;;2.08;1.33;;;;;;;;;;6686084;21;20278;-82
2024/04/12 16:55:44;;;;;;;1.60;1.20;;;;;;;;;;6685946;21;20601;-82
2024/04/12 16:58:12;;;;;;;4.18;1.45;;;;;;;;;;6681562;21;20270;-83
2024/04/12 17:00:41;;;;;;;3.78;1.30;;;;;;;;;;6685483;21;20270;-81
2024/04/12 17:03:11;;;;;;;3.95;1.23;;;;;;;;;;6730525;21;20226;-81
2024/04/12 17:05:40;;;;;;;1.88;1.08;;;;;;;;;;6686951;21;20265;-81
2024/04/12 17:08:08;;;;;;;2.85;1.58;;;;;;;;;;6686521;21;20243;-81
2024/04/12 17:10:41;;;;;;;4.53;1.50;;;;;;;;;;6687237;21;20283;-81
2024/04/12 17:13:09;;;;;;;2.00;1.25;;;;;;;;;;6684874;21;20746;-81
2024/04/12 17:15:37;;;;;;;3.30;1.50;;;;;;;;;;6687320;21;20256;-81
2024/04/12 17:18:05;;;;;;;2.97;1.30;;;;;;;;;;6687096;21;20290;-81
2024/04/12 17:20:34;;;;;;;3.73;1.50;;;;;;;;;;6687548;21;20257;-82
2024/04/12 17:23:04;;;;;;;5.88;1.30;;;;;;;;;;6686704;21;20533;-82
2024/04/12 17:25:32;;;;;;;6.13;1.37;;;;;;;;;;6686912;21;20227;-82
2024/04/12 17:28:01;;;;;;;3.00;1.50;;;;;;;;;;6686786;21;20225;-82
2024/04/12 17:30:31;;;;;;;2.13;1.33;;;;;;;;;;6687103;21;20221;-82
2024/04/12 17:32:59;;;;;;;3.87;1.57;;;;;;;;;;6685777;21;20230;-82
2024/04/12 17:35:27;;;;;;;3.60;3.20;;;;;;;;;;6685411;21;20329;-81
2024/04/12 17:37:54;;;;;;;8.47;3.87;;;;;;;;;;6685144;21;20580;-83
2024/04/12 17:40:23;;;;;;;7.70;4.20;;;;;;;;;;6685375;21;20220;-84